Terminal Aerodrome Forecast
Issued by NWS Memphis, TN

Home | Current Version | Previous Version | Text Only | Print | Product List | Glossary On
Versions: 1 2 3 4 5 6 7 8 9 10 11 12 13 14 15 16 17
000
FTUS44 KMEG 241738
TAFJBR
TAF
KJBR 241738Z 2418/2518 18020G28KT P6SM SCT030
     FM242300 17020G27KT P6SM VCTS BKN030CB
      TEMPO 2502/2506 3SM TSRA BR BKN025CB
     FM250600 18016G26KT P6SM SHRA VCTS OVC035CB
     FM250900 19010KT P6SM OVC060=

USA.gov is the U.S. government's official web portal to all federal, state and local government web resources and services.